Time;durP1;ratioP1;P1;durP2;ratioP2;P2;SDS_P1;SDS_P2;PMS_P1;PMS_P2;Temp;Humidity;BMP_temperature;BMP_pressure;BME280_temperature;BME280_humidity;BME280_pressure;Samples;Min_cycle;Max_cycle;Signal;HPM_P1;HPM_P2
2023/06/18 00:01:17;;;;;;;9.35;7.30;;;;;;;15.10;65.65;97054.16;5005473;28;20057;-64
2023/06/18 00:03:44;;;;;;;10.20;7.40;;;;;;;14.92;66.36;97049.13;5001268;28;20038;-63
2023/06/18 00:06:11;;;;;;;9.82;7.38;;;;;;;14.83;67.09;97048.94;5005670;28;20077;-64
2023/06/18 00:08:37;;;;;;;10.95;7.22;;;;;;;14.94;66.33;97044.22;5005784;28;20042;-64
2023/06/18 00:11:04;;;;;;;10.75;7.90;;;;;;;15.00;65.83;97046.91;5000617;28;20362;-63
2023/06/18 00:13:30;;;;;;;8.73;6.38;;;;;;;15.14;65.28;97039.63;5005102;28;20042;-63
2023/06/18 00:15:57;;;;;;;9.68;6.90;;;;;;;15.34;64.41;97040.50;4992780;28;20046;-63
2023/06/18 00:18:23;;;;;;;10.70;6.32;;;;;;;15.37;64.11;97042.63;4998290;28;20542;-64
2023/06/18 00:20:50;;;;;;;9.02;6.47;;;;;;;15.42;64.10;97042.59;5000813;28;20042;-63
2023/06/18 00:23:17;;;;;;;10.27;7.60;;;;;;;15.30;64.46;97031.28;4990974;28;20045;-64
2023/06/18 00:25:43;;;;;;;8.82;6.57;;;;;;;15.10;65.18;97037.81;4995873;28;20076;-64
2023/06/18 00:28:10;;;;;;;10.25;7.57;;;;;;;15.08;65.16;97041.59;4989348;28;20549;-63
2023/06/18 00:30:36;;;;;;;10.77;6.88;;;;;;;15.03;65.44;97040.84;4996485;28;20455;-65
2023/06/18 00:33:03;;;;;;;13.60;6.95;;;;;;;15.05;65.34;97039.47;4976389;28;20084;-65
2023/06/18 00:35:31;;;;;;;10.07;6.65;;;;;;;15.12;64.44;97038.31;4976744;28;20054;-64
2023/06/18 00:37:59;;;;;;;10.48;7.28;;;;;;;15.02;65.01;97036.50;4995049;28;20455;-64
2023/06/18 00:40:25;;;;;;;10.07;7.30;;;;;;;15.10;64.95;97029.63;4998432;28;20208;-63
2023/06/18 00:42:52;;;;;;;9.57;6.65;;;;;;;15.07;64.75;97029.09;4979460;28;20053;-63
2023/06/18 00:45:20;;;;;;;10.05;7.20;;;;;;;15.03;64.85;97028.03;5003044;28;20483;-64
2023/06/18 00:47:48;;;;;;;11.40;6.90;;;;;;;14.94;65.00;97033.31;5009646;28;20505;-64
2023/06/18 00:50:17;;;;;;;12.65;7.10;;;;;;;15.01;64.97;97023.97;4991128;28;20042;-64
2023/06/18 00:52:47;;;;;;;10.00;7.03;;;;;;;14.72;65.84;97028.34;4989561;28;20052;-64
2023/06/18 00:55:16;;;;;;;9.25;7.30;;;;;;;14.63;66.36;97019.97;4991147;28;20046;-64
2023/06/18 00:57:49;;;;;;;9.23;7.00;;;;;;;14.63;66.40;97027.34;5004403;28;20125;-64
2023/06/18 01:00:19;;;;;;;10.25;6.63;;;;;;;14.65;66.40;97017.78;4988095;28;20042;-64
2023/06/18 01:02:49;;;;;;;9.07;6.53;;;;;;;14.76;65.68;97026.69;5000484;28;20121;-64
2023/06/18 01:05:16;;;;;;;9.98;7.20;;;;;;;14.81;65.48;97018.44;5003890;28;20330;-64
2023/06/18 01:07:47;;;;;;;10.63;6.45;;;;;;;14.81;65.28;97023.09;5009012;28;20513;-64
2023/06/18 01:10:20;;;;;;;;;;;;;;;14.79;65.13;97017.94;5006478;28;20120;-64
2023/06/18 01:12:48;;;;;;;8.90;6.60;;;;;;;14.76;65.29;97018.50;5002250;28;19949;-64
2023/06/18 01:15:17;;;;;;;13.43;7.20;;;;;;;14.67;65.69;97020.22;4990764;28;20050;-64
2023/06/18 01:17:48;;;;;;;10.75;7.50;;;;;;;14.74;65.50;97015.22;4989422;28;20050;-64
2023/06/18 01:20:17;;;;;;;10.30;7.40;;;;;;;14.57;66.19;97018.41;5006460;28;20116;-64
2023/06/18 01:22:46;;;;;;;9.52;7.30;;;;;;;14.30;67.41;97009.63;4990505;28;20401;-64
2023/06/18 01:25:13;;;;;;;10.48;7.43;;;;;;;14.18;68.02;97004.56;5008139;28;20040;-64
2023/06/18 01:27:45;;;;;;;10.00;7.78;;;;;;;13.98;68.86;97007.44;4988834;28;20038;-63
2023/06/18 01:30:14;;;;;;;11.70;7.22;;;;;;;13.87;69.40;97002.06;4990045;28;20061;-63
2023/06/18 01:32:40;;;;;;;12.82;7.80;;;;;;;13.89;69.32;97010.75;5006561;28;20042;-63
2023/06/18 01:35:14;;;;;;;9.63;7.20;;;;;;;13.90;69.46;97004.22;5007425;28;20030;-63
2023/06/18 01:38:11;;;;;;;9.23;6.97;;;;;;;13.85;69.75;97000.69;5007131;28;20046;-64
2023/06/18 01:40:54;;;;;;;10.85;7.05;;;;;;;13.86;69.24;96997.69;4950061;28;20126;-63
2023/06/18 01:43:21;;;;;;;10.00;7.22;;;;;;;13.93;69.21;97004.75;5007624;28;20038;-64
2023/06/18 01:45:57;;;;;;;9.90;7.28;;;;;;;13.82;69.63;97002.09;4998296;28;20042;-63
2023/06/18 01:48:26;;;;;;;10.07;7.75;;;;;;;13.87;68.96;97002.06;4986252;28;20062;-64
2023/06/18 01:50:56;;;;;;;9.88;7.20;;;;;;;13.97;68.95;97012.03;4988919;28;20064;-64
2023/06/18 01:53:25;;;;;;;10.25;6.80;;;;;;;13.94;69.01;97006.38;5000905;28;20043;-63
2023/06/18 01:55:56;;;;;;;10.15;7.60;;;;;;;13.88;69.38;97011.03;5007982;28;20060;-63
2023/06/18 01:58:23;;;;;;;15.20;7.78;;;;;;;13.90;69.16;97008.84;4974919;28;20061;-64
2023/06/18 02:00:51;;;;;;;10.40;7.50;;;;;;;13.91;69.27;97010.47;4988452;28;20045;-63
2023/06/18 02:03:19;;;;;;;9.77;7.35;;;;;;;13.78;69.77;97006.47;4990243;28;20054;-63
2023/06/18 02:05:46;;;;;;;8.50;7.05;;;;;;;13.58;70.51;97002.78;4994267;28;20425;-63
2023/06/18 02:08:14;;;;;;;12.40;8.45;;;;;;;13.58;70.83;97007.41;4973122;28;20042;-63
2023/06/18 02:10:41;;;;;;;9.38;7.30;;;;;;;13.76;69.80;97012.22;4996705;28;20060;-64
2023/06/18 02:13:09;;;;;;;12.07;7.32;;;;;;;13.72;69.98;97005.72;4994165;28;20038;-63
2023/06/18 02:15:36;;;;;;;9.25;7.43;;;;;;;13.72;69.60;97005.72;4977108;28;20041;-64
2023/06/18 02:18:03;;;;;;;9.38;6.82;;;;;;;13.83;69.16;97000.19;5000481;28;20045;-64
2023/06/18 02:20:30;;;;;;;10.90;6.68;;;;;;;13.94;68.49;97006.38;4998092;28;20446;-63
2023/06/18 02:22:56;;;;;;;10.82;7.00;;;;;;;13.99;68.42;97009.03;5005425;28;20073;-64
2023/06/18 02:25:28;;;;;;;11.00;7.63;;;;;;;13.79;69.16;97013.56;5002985;28;20049;-64
2023/06/18 02:28:04;;;;;;;10.00;7.80;;;;;;;13.64;69.54;97009.00;5004742;28;20052;-63
2023/06/18 02:30:31;;;;;;;10.50;7.32;;;;;;;13.52;70.14;97007.44;5001395;28;20049;-63
2023/06/18 02:32:59;;;;;;;12.10;7.95;;;;;;;13.58;69.78;97010.94;4986107;28;20045;-64
2023/06/18 02:35:28;;;;;;;11.48;7.88;;;;;;;13.62;69.61;97009.28;4989284;28;20046;-63
2023/06/18 02:37:55;;;;;;;9.35;7.00;;;;;;;13.66;69.41;97004.09;5007038;28;20076;-62
2023/06/18 02:40:22;;;;;;;8.75;7.07;;;;;;;13.65;69.38;97010.63;5006600;28;20046;-63
2023/06/18 02:42:50;;;;;;;12.32;8.20;;;;;;;13.68;69.25;97004.63;4999188;28;20124;-63
2023/06/18 02:45:20;;;;;;;9.15;7.00;;;;;;;13.56;69.75;97013.13;4988603;28;20038;-63
2023/06/18 02:47:48;;;;;;;9.55;7.07;;;;;;;13.38;70.60;97007.19;5006709;28;20037;-64
2023/06/18 02:50:17;;;;;;;10.60;7.50;;;;;;;13.32;71.04;96999.34;4988440;28;20446;-65
2023/06/18 02:52:46;;;;;;;9.95;7.32;;;;;;;13.35;71.00;97005.03;4972424;28;20104;-64
2023/06/18 02:55:13;;;;;;;8.80;7.32;;;;;;;13.36;70.84;96998.50;4988917;28;20050;-64
2023/06/18 02:57:40;;;;;;;12.07;7.20;;;;;;;13.26;71.25;97004.81;5006454;28;20520;-63
2023/06/18 03:00:13;;;;;;;10.57;7.35;;;;;;;13.22;71.54;96998.31;5005336;28;20044;-63
2023/06/18 03:02:43;;;;;;;8.82;6.72;;;;;;;13.22;71.58;97008.34;5003755;28;20049;-64
2023/06/18 03:05:15;;;;;;;11.35;7.97;;;;;;;13.23;71.67;97001.84;4985954;28;20076;-64
2023/06/18 03:07:41;;;;;;;11.52;7.15;;;;;;;13.25;71.49;97007.81;4988884;28;20038;-64
2023/06/18 03:10:10;;;;;;;10.10;7.53;;;;;;;13.17;72.02;97009.19;5006052;28;20042;-64
2023/06/18 03:12:37;;;;;;;10.18;7.50;;;;;;;13.18;71.96;97004.56;4987974;28;20078;-63
2023/06/18 03:15:15;;;;;;;11.90;7.03;;;;;;;13.13;71.80;97008.94;4988390;28;20034;-63
2023/06/18 03:17:43;;;;;;;9.82;7.47;;;;;;;13.22;71.33;97011.06;4988650;28;20042;-64
2023/06/18 03:20:10;;;;;;;11.95;7.72;;;;;;;13.23;71.43;97013.50;4983201;28;20046;-63
2023/06/18 03:22:37;;;;;;;8.88;6.75;;;;;;;13.22;71.56;97020.06;4984853;28;20133;-63
2023/06/18 03:25:05;;;;;;;10.00;7.07;;;;;;;13.35;70.61;97015.91;4988248;28;20069;-64
2023/06/18 03:27:32;;;;;;;9.45;6.80;;;;;;;13.36;70.26;97020.28;4986229;28;20148;-63
2023/06/18 03:29:58;;;;;;;11.68;7.88;;;;;;;13.22;71.00;97024.66;4988067;28;20065;-63
2023/06/18 03:32:28;;;;;;;11.90;7.70;;;;;;;13.18;71.31;97027.13;4987322;28;20145;-63
2023/06/18 03:34:54;;;;;;;9.93;7.18;;;;;;;13.22;70.99;97021.94;4986004;28;20057;-63
2023/06/18 03:37:22;;;;;;;9.38;6.43;;;;;;;13.29;70.79;97022.47;4988235;28;20056;-63
2023/06/18 03:39:48;;;;;;;10.00;7.25;;;;;;;13.29;70.59;97027.91;5003389;28;20038;-63
2023/06/18 03:42:15;;;;;;;9.93;6.95;;;;;;;13.22;71.05;97028.22;4980196;28;20045;-63
2023/06/18 03:44:42;;;;;;;10.27;7.30;;;;;;;13.17;71.42;97021.97;4988036;28;20046;-64
2023/06/18 03:47:08;;;;;;;12.43;7.20;;;;;;;13.26;70.78;97025.72;5005697;28;20116;-63
2023/06/18 03:49:35;;;;;;;10.30;6.70;;;;;;;13.34;70.42;97032.53;4987326;28;20046;-63
2023/06/18 03:52:02;;;;;;;9.15;7.45;;;;;;;13.41;70.11;97024.84;4987390;28;20133;-63
2023/06/18 03:54:28;;;;;;;9.80;6.78;;;;;;;13.51;69.37;97027.56;4987518;28;20045;-63
2023/06/18 03:56:58;;;;;;;11.52;7.00;;;;;;;13.59;69.26;97022.63;4983762;28;20054;-63
2023/06/18 03:59:25;;;;;;;9.32;6.72;;;;;;;13.69;68.48;97022.59;5001665;28;20439;-64
2023/06/18 04:01:52;;;;;;;9.40;6.88;;;;;;;13.74;68.51;97024.44;4987619;28;20531;-64
2023/06/18 04:04:20;;;;;;;9.43;6.88;;;;;;;13.84;68.07;97026.28;4981855;28;20125;-64
2023/06/18 04:06:47;;;;;;;9.10;6.82;;;;;;;13.77;68.84;97030.16;4985074;28;20042;-63
2023/06/18 04:09:14;;;;;;;9.52;7.13;;;;;;;13.82;68.32;97026.56;4987462;28;20066;-63
2023/06/18 04:11:42;;;;;;;12.23;7.70;;;;;;;13.78;68.33;97034.50;4987545;28;20034;-63
2023/06/18 04:14:09;;;;;;;11.35;7.30;;;;;;;13.90;67.81;97034.13;5005281;28;20042;-62
2023/06/18 04:16:35;;;;;;;9.20;6.78;;;;;;;14.06;67.52;97031.31;4987234;28;20038;-63
2023/06/18 04:19:02;;;;;;;9.88;6.70;;;;;;;14.14;66.98;97025.28;5005349;28;20409;-63
2023/06/18 04:21:29;;;;;;;11.45;7.25;;;;;;;14.27;66.48;97026.53;5002957;28;20479;-64
2023/06/18 04:23:57;;;;;;;8.20;6.35;;;;;;;14.40;66.22;97021.53;4987268;28;20509;-63
2023/06/18 04:26:24;;;;;;;9.73;6.35;;;;;;;14.49;65.99;97021.72;4987201;28;20444;-64
2023/06/18 04:28:51;;;;;;;10.93;6.80;;;;;;;14.65;65.20;97020.50;4988051;28;20038;-64
2023/06/18 04:31:18;;;;;;;9.10;6.65;;;;;;;14.78;64.93;97026.41;4986988;28;20131;-63
2023/06/18 04:33:45;;;;;;;9.38;6.70;;;;;;;14.81;65.03;97021.19;4982324;28;20050;-63
2023/06/18 04:36:14;;;;;;;13.02;6.60;;;;;;;14.74;65.76;97017.94;4987425;28;20053;-63
2023/06/18 04:38:43;;;;;;;9.63;7.00;;;;;;;14.78;65.55;97019.03;4987797;28;20042;-63
2023/06/18 04:41:10;;;;;;;10.60;6.75;;;;;;;14.82;65.66;97022.00;4987508;28;20060;-63
2023/06/18 04:43:36;;;;;;;10.30;6.22;;;;;;;14.88;65.26;97012.66;5004575;28;20180;-63
2023/06/18 04:46:03;;;;;;;10.65;7.15;;;;;;;14.83;65.46;97020.91;4987449;28;20049;-63
2023/06/18 04:48:34;;;;;;;8.70;6.53;;;;;;;14.94;65.20;97011.53;4986927;28;20560;-63
2023/06/18 04:51:01;;;;;;;8.68;6.75;;;;;;;15.01;64.99;97005.72;4987321;28;20520;-63
2023/06/18 04:53:29;;;;;;;7.80;6.10;;;;;;;15.13;64.91;97004.47;4981879;28;20573;-63
2023/06/18 04:55:56;;;;;;;9.23;6.40;;;;;;;15.18;64.92;97007.13;4987126;28;20037;-63
2023/06/18 04:58:26;;;;;;;8.30;6.15;;;;;;;15.14;65.31;97017.03;4987482;28;20100;-63
2023/06/18 05:00:53;;;;;;;9.93;6.45;;;;;;;15.15;65.33;97013.19;4982791;28;20092;-64
2023/06/18 05:03:19;;;;;;;9.43;6.65;;;;;;;15.16;64.99;97012.91;4986898;28;20068;-63
2023/06/18 05:05:46;;;;;;;8.93;6.57;;;;;;;15.23;64.91;97009.00;4987543;28;20046;-64
2023/06/18 05:08:13;;;;;;;8.75;6.47;;;;;;;15.28;64.78;97012.50;4987231;28;20042;-63
2023/06/18 05:10:39;;;;;;;8.80;6.45;;;;;;;15.31;64.65;97005.63;4983511;28;20084;-63
2023/06/18 05:13:06;;;;;;;9.40;6.53;;;;;;;15.37;64.29;97007.19;4984619;28;20046;-64
2023/06/18 05:15:32;;;;;;;9.85;6.25;;;;;;;15.46;64.58;97010.91;4980741;28;20155;-63
2023/06/18 05:17:59;;;;;;;11.18;6.00;;;;;;;15.48;64.63;97008.69;4987411;28;20042;-63
2023/06/18 05:20:26;;;;;;;9.93;6.70;;;;;;;15.55;64.09;97016.50;4986834;28;20061;-63
2023/06/18 05:22:54;;;;;;;8.95;6.05;;;;;;;15.63;63.07;97011.50;4986943;28;20046;-63
2023/06/18 05:25:23;;;;;;;9.38;6.60;;;;;;;15.77;62.52;97023.31;4981593;28;20529;-62
2023/06/18 05:27:49;;;;;;;9.15;6.45;;;;;;;15.90;61.83;97019.03;4982637;28;20069;-63
2023/06/18 05:30:18;;;;;;;8.95;5.90;;;;;;;16.02;61.51;97029.53;4987340;28;20046;-63
2023/06/18 05:32:44;;;;;;;8.45;6.18;;;;;;;16.23;59.81;97021.03;4986068;28;20042;-63
2023/06/18 05:35:14;;;;;;;9.27;6.05;;;;;;;16.41;59.41;97019.38;4990417;28;20041;-64
2023/06/18 05:37:49;;;;;;;8.70;6.47;;;;;;;16.57;59.02;97024.56;4990639;28;20065;-63
2023/06/18 05:40:16;;;;;;;9.85;5.80;;;;;;;16.69;58.00;97033.09;4990043;28;20046;-63
2023/06/18 05:42:43;;;;;;;8.50;6.03;;;;;;;16.82;57.71;97031.50;4987174;28;20050;-63
2023/06/18 05:45:11;;;;;;;8.65;6.63;;;;;;;16.93;56.97;97032.13;4986212;28;20538;-62
2023/06/18 05:47:39;;;;;;;8.27;6.00;;;;;;;17.09;56.25;97029.13;4988716;28;20046;-63
2023/06/18 05:50:09;;;;;;;8.55;6.03;;;;;;;17.24;55.96;97025.28;4984077;28;20057;-63
2023/06/18 05:52:37;;;;;;;7.47;6.00;;;;;;;17.38;55.00;97030.75;4989505;28;20081;-62
2023/06/18 05:55:06;;;;;;;8.00;6.10;;;;;;;17.57;54.53;97016.94;4990200;28;20042;-62
2023/06/18 05:57:34;;;;;;;10.10;6.07;;;;;;;17.80;53.58;97017.81;4989344;28;20136;-63
2023/06/18 06:00:01;;;;;;;7.57;5.82;;;;;;;18.05;53.49;97012.88;5007560;28;20038;-63
2023/06/18 06:02:28;;;;;;;7.90;5.93;;;;;;;18.29;52.61;97021.94;5006834;28;20542;-62
2023/06/18 06:04:55;;;;;;;10.23;5.60;;;;;;;18.48;51.57;97021.75;4990008;28;20034;-62
2023/06/18 06:07:21;;;;;;;8.18;5.30;;;;;;;18.64;50.78;97019.41;5005069;28;20060;-62
2023/06/18 06:09:48;;;;;;;8.38;5.75;;;;;;;18.83;49.79;97019.19;4989197;28;20042;-62
2023/06/18 06:12:15;;;;;;;10.55;6.07;;;;;;;19.03;48.57;97027.19;4989170;28;20081;-63
2023/06/18 06:14:42;;;;;;;7.00;5.25;;;;;;;19.21;47.74;97026.16;4989689;28;20038;-63
2023/06/18 06:17:09;;;;;;;7.68;5.63;;;;;;;19.43;46.50;97032.72;4990068;28;20096;-63
2023/06/18 06:19:36;;;;;;;6.57;4.90;;;;;;;19.60;46.75;97025.63;4985160;28;20069;-63
2023/06/18 06:22:05;;;;;;;8.30;5.00;;;;;;;19.76;45.47;97032.28;4989339;28;20172;-63
2023/06/18 06:24:31;;;;;;;7.93;4.95;;;;;;;19.89;44.30;97027.78;4989269;28;20050;-62
2023/06/18 06:26:58;;;;;;;7.25;5.45;;;;;;;20.02;44.65;97027.97;4986563;28;20132;-63
2023/06/18 06:29:27;;;;;;;8.20;5.57;;;;;;;20.19;44.22;97024.41;4989545;28;20144;-61
2023/06/18 06:31:53;;;;;;;10.80;5.53;;;;;;;20.34;43.31;97025.06;4982260;28;20048;-63
2023/06/18 06:34:21;;;;;;;6.85;5.00;;;;;;;20.49;43.24;97026.50;4984442;28;20057;-63
2023/06/18 06:36:50;;;;;;;8.15;5.55;;;;;;;20.60;42.63;97026.97;4987704;28;20065;-63
2023/06/18 06:39:18;;;;;;;7.32;5.22;;;;;;;20.74;42.45;97035.00;4988894;28;20523;-62
2023/06/18 06:41:45;;;;;;;7.32;4.68;;;;;;;20.89;41.64;97023.50;4986467;28;20132;-63
2023/06/18 06:44:14;;;;;;;8.10;5.25;;;;;;;20.98;40.49;97028.19;4985143;28;20037;-63
2023/06/18 06:46:50;;;;;;;7.53;4.82;;;;;;;21.11;40.99;97027.16;5004540;28;20085;-63
2023/06/18 06:49:35;;;;;;;9.30;5.53;;;;;;;21.17;40.14;97033.28;5005575;28;20061;-63
2023/06/18 06:52:24;;;;;;;6.78;4.82;;;;;;;21.26;39.14;97034.06;4989055;28;20452;-63
2023/06/18 06:54:53;;;;;;;7.35;4.82;;;;;;;21.37;38.79;97036.44;4989569;28;20072;-62
2023/06/18 06:57:20;;;;;;;7.82;4.82;;;;;;;21.47;39.01;97036.06;4988316;28;20077;-62
2023/06/18 06:59:46;;;;;;;6.70;4.95;;;;;;;21.60;38.71;97034.22;4987257;28;20073;-62
2023/06/18 07:02:15;;;;;;;7.63;4.88;;;;;;;21.72;39.17;97030.75;4985881;28;20049;-61
2023/06/18 07:04:46;;;;;;;7.70;4.70;;;;;;;21.75;38.17;97034.81;5005217;28;20066;-62
2023/06/18 07:07:15;;;;;;;6.35;4.75;;;;;;;21.88;38.29;97032.91;4987216;28;20076;-62
2023/06/18 07:09:42;;;;;;;6.60;4.47;;;;;;;22.00;37.77;97032.22;4997893;28;20140;-62
2023/06/18 07:12:09;;;;;;;8.52;4.75;;;;;;;22.07;37.87;97038.78;5005972;28;20072;-62
2023/06/18 07:14:36;;;;;;;10.60;5.05;;;;;;;22.17;37.96;97042.28;5006176;28;20120;-63
2023/06/18 07:17:03;;;;;;;8.52;5.82;;;;;;;22.15;37.56;97045.38;5006584;28;20496;-62
2023/06/18 07:19:29;;;;;;;7.53;4.30;;;;;;;22.24;37.53;97036.22;5001892;28;20056;-63
2023/06/18 07:21:56;;;;;;;6.68;4.80;;;;;;;22.30;37.85;97035.66;5005800;28;20042;-61
2023/06/18 07:24:22;;;;;;;7.18;5.20;;;;;;;22.44;37.75;97038.16;5006062;28;20065;-61
2023/06/18 07:26:49;;;;;;;7.00;5.10;;;;;;;22.53;37.32;97040.03;5005252;28;20113;-62
2023/06/18 07:29:16;;;;;;;8.30;5.38;;;;;;;22.64;36.85;97040.44;4986632;28;20046;-62
2023/06/18 07:31:42;;;;;;;7.28;4.95;;;;;;;22.74;36.40;97040.81;5005499;28;20064;-61
2023/06/18 07:34:09;;;;;;;6.55;4.60;;;;;;;22.81;36.76;97040.25;5004127;28;20042;-62
2023/06/18 07:36:36;;;;;;;7.30;4.85;;;;;;;22.91;36.35;97038.19;5000505;28;20038;-61
2023/06/18 07:39:02;;;;;;;7.28;5.15;;;;;;;22.95;36.34;97037.19;5000216;28;20111;-61
2023/06/18 07:41:29;;;;;;;7.18;4.53;;;;;;;22.90;35.83;97031.88;5005496;28;20042;-63
2023/06/18 07:43:57;;;;;;;7.88;4.70;;;;;;;22.95;36.62;97037.19;4998319;28;20053;-62
2023/06/18 07:46:24;;;;;;;7.28;4.55;;;;;;;23.09;36.60;97034.09;5001670;28;20045;-62
2023/06/18 07:48:51;;;;;;;7.60;4.55;;;;;;;23.16;35.93;97041.00;4990808;28;20094;-62
2023/06/18 07:51:17;;;;;;;7.35;5.28;;;;;;;23.23;36.52;97044.81;4993762;28;20090;-63
2023/06/18 07:53:45;;;;;;;9.40;4.55;;;;;;;23.31;35.96;97034.00;4999661;28;20188;-62
2023/06/18 07:56:12;;;;;;;9.10;6.53;;;;;;;23.41;36.64;97036.34;4997441;28;20038;-62
2023/06/18 07:58:38;;;;;;;6.50;4.72;;;;;;;23.50;36.90;97037.03;4993108;28;20116;-63
2023/06/18 08:01:05;;;;;;;9.75;5.38;;;;;;;23.62;37.89;97036.19;4996024;28;20065;-62
2023/06/18 08:03:31;;;;;;;8.50;5.00;;;;;;;23.77;36.34;97040.22;4989705;28;20053;-62
2023/06/18 08:05:59;;;;;;;6.45;4.82;;;;;;;23.85;36.51;97030.16;5001584;28;20046;-62
2023/06/18 08:08:26;;;;;;;8.00;4.70;;;;;;;23.92;36.84;97034.31;4998258;28;20053;-63
2023/06/18 08:10:52;;;;;;;8.68;5.65;;;;;;;24.07;36.52;97027.25;5002966;28;21410;-62
2023/06/18 08:13:19;;;;;;;7.53;5.05;;;;;;;24.12;36.47;97030.63;5004872;28;20176;-63
2023/06/18 08:15:45;;;;;;;6.55;4.78;;;;;;;24.27;34.71;97031.84;5001297;28;20430;-63
2023/06/18 08:18:12;;;;;;;6.43;4.60;;;;;;;24.34;34.69;97035.94;5005652;28;20681;-63
2023/06/18 08:20:38;;;;;;;7.90;5.10;;;;;;;24.39;34.47;97030.97;5000584;28;20042;-62
2023/06/18 08:23:05;;;;;;;6.95;4.68;;;;;;;24.41;34.21;97033.41;4996708;28;20035;-62
2023/06/18 08:25:32;;;;;;;5.72;4.03;;;;;;;24.46;34.21;97033.13;5005483;28;20046;-62
2023/06/18 08:27:58;;;;;;;8.40;4.78;;;;;;;24.51;33.99;97027.34;5002276;28;20051;-62
2023/06/18 08:30:25;;;;;;;8.20;4.40;;;;;;;24.53;33.43;97030.56;5005243;28;20038;-62
2023/06/18 08:32:51;;;;;;;7.63;5.13;;;;;;;24.57;33.21;97027.91;5000746;28;20044;-62
2023/06/18 08:35:19;;;;;;;8.10;5.35;;;;;;;24.65;33.94;97029.72;5003301;28;20070;-63
2023/06/18 08:37:46;;;;;;;7.47;4.85;;;;;;;24.77;32.42;97028.81;5005514;28;20038;-62
2023/06/18 08:40:14;;;;;;;7.07;4.80;;;;;;;24.85;32.61;97027.09;5005084;28;20048;-62
2023/06/18 08:42:40;;;;;;;6.53;5.15;;;;;;;24.90;32.46;97023.25;5004628;28;20104;-61
2023/06/18 08:45:20;;;;;;;6.65;4.78;;;;;;;24.95;31.52;97023.00;5004952;28;20042;-62
2023/06/18 08:47:53;;;;;;;7.30;4.45;;;;;;;24.94;29.94;97013.88;5005799;28;20060;-62
2023/06/18 08:50:20;;;;;;;7.35;4.70;;;;;;;25.14;31.05;97024.25;5001922;28;20050;-63
2023/06/18 08:52:51;;;;;;;6.93;4.63;;;;;;;25.25;31.46;97019.78;5002940;28;20677;-62
2023/06/18 08:55:17;;;;;;;6.22;4.47;;;;;;;25.33;30.42;97018.78;5002645;28;20053;-62
2023/06/18 08:58:01;;;;;;;7.82;4.68;;;;;;;25.45;30.78;97022.63;5004507;28;20600;-63
2023/06/18 09:00:28;;;;;;;6.85;4.43;;;;;;;25.50;30.98;97025.13;5001482;28;20041;-62
2023/06/18 09:02:56;;;;;;;8.55;4.00;;;;;;;25.56;30.02;97017.31;4999003;28;20128;-62
2023/06/18 09:05:23;;;;;;;7.22;4.68;;;;;;;25.53;29.01;97024.41;5001978;28;20046;-62
2023/06/18 09:07:50;;;;;;;6.38;4.70;;;;;;;25.65;29.52;97017.19;5003337;28;20129;-62
2023/06/18 09:10:18;;;;;;;7.07;4.22;;;;;;;25.66;30.13;97016.81;5003705;28;20130;-62
2023/06/18 09:12:45;;;;;;;6.15;4.28;;;;;;;25.58;28.81;97018.59;5003356;28;20096;-61
2023/06/18 09:15:12;;;;;;;6.90;4.00;;;;;;;25.64;29.94;97019.13;5008521;28;20042;-62
2023/06/18 09:17:40;;;;;;;7.25;4.72;;;;;;;25.58;29.65;97021.38;5008566;28;20041;-62
2023/06/18 09:20:10;;;;;;;8.30;4.75;;;;;;;25.60;29.77;97017.47;5008464;28;20038;-62
2023/06/18 09:22:45;;;;;;;8.30;5.33;;;;;;;25.55;29.41;97012.97;4989955;28;20046;-61
2023/06/18 09:25:20;;;;;;;5.80;4.07;;;;;;;25.60;29.25;97009.16;5006649;28;20280;-63
2023/06/18 09:27:48;;;;;;;6.50;4.57;;;;;;;25.66;29.74;97010.47;5005538;28;20061;-62
2023/06/18 09:30:23;;;;;;;7.28;4.30;;;;;;;25.63;30.00;97002.84;4999476;28;20042;-64
2023/06/18 09:32:50;;;;;;;6.80;4.43;;;;;;;25.56;28.87;96996.00;5004012;28;20100;-61
2023/06/18 09:35:18;;;;;;;7.63;4.35;;;;;;;25.56;29.59;96992.38;5008087;28;20501;-61
2023/06/18 09:37:45;;;;;;;6.68;4.80;;;;;;;25.75;29.68;96999.97;5008333;28;20042;-62
2023/06/18 09:40:16;;;;;;;6.97;4.10;;;;;;;25.94;29.72;96988.09;5005806;28;20046;-62
2023/06/18 09:42:43;;;;;;;;;;;;;;;25.98;28.24;96990.94;5002857;28;20050;-62
2023/06/18 09:45:11;;;;;;;7.03;4.13;;;;;;;25.99;28.92;96987.03;5007935;28;19921;-63
2023/06/18 09:47:40;;;;;;;6.45;3.80;;;;;;;26.14;28.62;96992.84;5006268;28;20043;-63
2023/06/18 09:50:10;;;;;;;6.20;4.30;;;;;;;26.18;29.15;96997.31;5005911;28;20052;-63
2023/06/18 09:52:48;;;;;;;6.60;4.20;;;;;;;26.28;30.08;96990.41;4989492;28;20042;-63
2023/06/18 09:55:25;;;;;;;5.93;4.30;;;;;;;26.38;28.60;96994.56;4990611;28;20048;-63
2023/06/18 09:57:51;;;;;;;5.68;3.88;;;;;;;26.47;28.15;96986.00;5004053;28;20058;-64
2023/06/18 10:00:19;;;;;;;8.13;4.40;;;;;;;26.28;28.29;96984.88;5007592;28;20053;-63
2023/06/18 10:02:45;;;;;;;7.15;4.45;;;;;;;26.32;28.33;96979.38;5007451;28;20074;-63
2023/06/18 10:05:12;;;;;;;5.60;3.95;;;;;;;26.28;27.97;96984.06;5001747;28;20064;-63
2023/06/18 10:07:40;;;;;;;6.80;4.70;;;;;;;26.24;29.42;96983.97;5007566;28;20107;-64
2023/06/18 10:10:13;;;;;;;6.88;5.10;;;;;;;26.21;29.63;96981.91;5007444;28;20045;-62
2023/06/18 10:12:44;;;;;;;7.70;4.80;;;;;;;26.24;30.00;96979.19;5006693;28;20076;-63
2023/06/18 10:15:12;;;;;;;7.40;4.88;;;;;;;26.44;30.01;96973.66;5006901;28;20400;-63
2023/06/18 10:17:52;;;;;;;6.40;4.65;;;;;;;26.62;29.07;96970.41;5007258;28;20041;-63
2023/06/18 10:20:23;;;;;;;8.57;4.90;;;;;;;26.84;29.88;96970.81;5007296;28;20049;-63
2023/06/18 10:22:54;;;;;;;6.43;4.78;;;;;;;27.00;29.45;96973.47;5002603;28;20058;-63
2023/06/18 10:25:21;;;;;;;8.50;5.22;;;;;;;26.92;28.38;96975.31;4998638;28;20046;-62
2023/06/18 10:27:49;;;;;;;7.10;4.80;;;;;;;26.92;29.09;96971.72;4990603;28;20046;-63
2023/06/18 10:30:16;;;;;;;7.38;4.80;;;;;;;26.86;28.94;96968.44;4999082;28;20042;-62
2023/06/18 10:32:43;;;;;;;7.35;4.97;;;;;;;26.84;29.04;96965.25;4997732;28;20034;-61
2023/06/18 10:35:12;;;;;;;7.90;4.90;;;;;;;27.07;28.54;96965.25;4995286;28;20040;-61
2023/06/18 10:37:42;;;;;;;7.35;4.95;;;;;;;27.24;28.83;96974.25;5003415;28;20483;-61
2023/06/18 10:40:09;;;;;;;6.13;5.03;;;;;;;27.21;28.58;96966.66;4996578;28;20046;-62
2023/06/18 10:42:36;;;;;;;7.55;5.25;;;;;;;27.23;28.64;96969.88;4995254;28;20421;-61
2023/06/18 10:45:13;;;;;;;8.18;5.00;;;;;;;27.34;28.29;96964.50;5002822;28;20639;-64
2023/06/18 10:47:41;;;;;;;6.50;4.63;;;;;;;27.35;28.11;96961.31;4997222;28;20125;-64
2023/06/18 10:50:16;;;;;;;6.65;5.07;;;;;;;27.34;28.35;96965.28;4992705;28;20107;-63
2023/06/18 10:52:51;;;;;;;6.60;4.65;;;;;;;27.17;28.42;96949.94;4996498;28;20048;-63
2023/06/18 10:55:20;;;;;;;7.30;4.72;;;;;;;27.21;28.47;96950.81;5003913;28;20050;-63
2023/06/18 10:57:50;;;;;;;6.88;4.97;;;;;;;27.42;28.10;96945.94;5004552;28;20046;-63
2023/06/18 11:00:31;;;;;;;6.70;4.97;;;;;;;27.35;28.31;96933.53;5006524;28;20046;-62
2023/06/18 11:03:03;;;;;;;6.32;4.63;;;;;;;27.48;28.79;96941.63;4999632;28;20045;-64
2023/06/18 11:05:36;;;;;;;5.78;4.50;;;;;;;27.81;28.51;96939.31;5001274;28;20044;-62
2023/06/18 11:08:05;;;;;;;7.30;4.90;;;;;;;27.96;27.93;96940.34;4998512;28;20045;-61
2023/06/18 11:10:40;;;;;;;7.03;4.60;;;;;;;27.93;27.27;96941.88;5006311;28;20544;-62
2023/06/18 11:13:09;;;;;;;7.20;4.68;;;;;;;27.95;27.69;96933.16;5006442;28;20038;-62
2023/06/18 11:15:54;;;;;;;8.68;4.80;;;;;;;28.28;27.60;96929.59;5006645;28;20046;-63
2023/06/18 11:18:21;;;;;;;7.13;4.78;;;;;;;28.38;27.08;96936.44;4979148;28;20046;-62
2023/06/18 11:20:48;;;;;;;7.93;4.90;;;;;;;28.36;26.76;96930.47;5006402;28;20046;-63
2023/06/18 11:23:15;;;;;;;6.45;4.95;;;;;;;28.44;26.86;96936.91;5005672;28;20049;-62
2023/06/18 11:25:42;;;;;;;11.52;5.20;;;;;;;28.54;26.71;96932.63;5002161;28;20045;-63
2023/06/18 11:28:09;;;;;;;8.88;5.15;;;;;;;28.48;26.36;96925.81;4998415;28;20564;-61
2023/06/18 11:30:36;;;;;;;7.13;4.90;;;;;;;28.48;26.53;96925.81;4978825;28;20524;-63
2023/06/18 11:33:03;;;;;;;6.32;4.80;;;;;;;28.66;26.26;96923.19;4993968;28;20034;-62
2023/06/18 11:35:32;;;;;;;8.80;4.68;;;;;;;28.69;25.89;96928.81;4995274;28;20101;-62
2023/06/18 11:37:59;;;;;;;6.85;4.63;;;;;;;28.54;26.07;96913.94;4991595;28;20039;-60